sensor_id;sensor_type;location;lat;lon;timestamp;temperature;humidity
38788;DHT22;24536;45.488;12.238;2022-10-16T00:00:31;19.90;92.30
38788;DHT22;24536;45.488;12.238;2022-10-16T00:02:57;19.80;92.30
38788;DHT22;24536;45.488;12.238;2022-10-16T00:05:23;19.90;92.30
38788;DHT22;24536;45.488;12.238;2022-10-16T00:07:49;19.90;92.30
38788;DHT22;24536;45.488;12.238;2022-10-16T00:10:15;19.90;92.40
38788;DHT22;24536;45.488;12.238;2022-10-16T00:12:41;20.00;92.30
38788;DHT22;24536;45.488;12.238;2022-10-16T00:15:07;19.90;92.20
38788;DHT22;24536;45.488;12.238;2022-10-16T00:17:33;19.90;92.40
38788;DHT22;24536;45.488;12.238;2022-10-16T00:19:58;20.00;92.50
38788;DHT22;24536;45.488;12.238;2022-10-16T00:22:24;20.00;92.50
38788;DHT22;24536;45.488;12.238;2022-10-16T00:24:50;20.00;92.40
38788;DHT22;24536;45.488;12.238;2022-10-16T00:27:16;20.00;92.40
38788;DHT22;24536;45.488;12.238;2022-10-16T00:29:42;20.00;92.40
38788;DHT22;24536;45.488;12.238;2022-10-16T00:32:08;20.00;92.40
38788;DHT22;24536;45.488;12.238;2022-10-16T00:34:34;20.10;92.40
38788;DHT22;24536;45.488;12.238;2022-10-16T00:36:59;20.10;92.40
38788;DHT22;24536;45.488;12.238;2022-10-16T00:39:25;20.10;92.40
38788;DHT22;24536;45.488;12.238;2022-10-16T00:41:51;20.00;92.30
38788;DHT22;24536;45.488;12.238;2022-10-16T00:47:10;20.10;92.60
38788;DHT22;24536;45.488;12.238;2022-10-16T00:49:36;20.00;92.70
38788;DHT22;24536;45.488;12.238;2022-10-16T00:52:02;20.00;92.70
38788;DHT22;24536;45.488;12.238;2022-10-16T00:54:29;20.00;92.70
38788;DHT22;24536;45.488;12.238;2022-10-16T00:56:59;20.00;92.60
38788;DHT22;24536;45.488;12.238;2022-10-16T00:59:35;20.00;92.60
38788;DHT22;24536;45.488;12.238;2022-10-16T01:02:03;20.00;92.60
38788;DHT22;24536;45.488;12.238;2022-10-16T01:04:37;20.00;92.50
38788;DHT22;24536;45.488;12.238;2022-10-16T01:09:57;20.00;92.50
38788;DHT22;24536;45.488;12.238;2022-10-16T01:20:33;20.00;92.70
38788;DHT22;24536;45.488;12.238;2022-10-16T01:31:38;20.00;92.50
38788;DHT22;24536;45.488;12.238;2022-10-16T01:34:10;20.00;92.40
38788;DHT22;24536;45.488;12.238;2022-10-16T01:36:51;20.00;92.40
38788;DHT22;24536;45.488;12.238;2022-10-16T01:39:21;20.00;92.40
38788;DHT22;24536;45.488;12.238;2022-10-16T01:41:54;19.90;91.70
38788;DHT22;24536;45.488;12.238;2022-10-16T01:44:32;19.90;92.00
38788;DHT22;24536;45.488;12.238;2022-10-16T01:46:59;19.90;92.00
38788;DHT22;24536;45.488;12.238;2022-10-16T01:49:30;19.90;91.90
38788;DHT22;24536;45.488;12.238;2022-10-16T01:51:59;19.90;92.00
38788;DHT22;24536;45.488;12.238;2022-10-16T01:54:27;19.90;91.80
38788;DHT22;24536;45.488;12.238;2022-10-16T01:56:55;19.90;91.80
38788;DHT22;24536;45.488;12.238;2022-10-16T01:59:25;19.90;91.80
38788;DHT22;24536;45.488;12.238;2022-10-16T02:01:56;19.90;91.80
38788;DHT22;24536;45.488;12.238;2022-10-16T02:04:26;19.90;91.80
38788;DHT22;24536;45.488;12.238;2022-10-16T02:06:53;19.90;92.00
38788;DHT22;24536;45.488;12.238;2022-10-16T02:09:20;19.90;91.80
38788;DHT22;24536;45.488;12.238;2022-10-16T02:11:46;19.90;91.80
38788;DHT22;24536;45.488;12.238;2022-10-16T02:14:12;19.90;91.80
38788;DHT22;24536;45.488;12.238;2022-10-16T02:16:40;19.90;91.90
38788;DHT22;24536;45.488;12.238;2022-10-16T02:19:07;19.90;91.70
38788;DHT22;24536;45.488;12.238;2022-10-16T02:21:54;19.90;92.00
38788;DHT22;24536;45.488;12.238;2022-10-16T02:24:43;19.80;92.00
38788;DHT22;24536;45.488;12.238;2022-10-16T02:27:27;19.80;92.10
38788;DHT22;24536;45.488;12.238;2022-10-16T02:30:02;19.80;92.20
38788;DHT22;24536;45.488;12.238;2022-10-16T02:32:34;19.80;92.20
38788;DHT22;24536;45.488;12.238;2022-10-16T02:35:01;19.80;92.40
38788;DHT22;24536;45.488;12.238;2022-10-16T02:37:28;19.80;92.40
38788;DHT22;24536;45.488;12.238;2022-10-16T02:39:56;19.80;92.40
38788;DHT22;24536;45.488;12.238;2022-10-16T02:42:28;19.80;92.50
38788;DHT22;24536;45.488;12.238;2022-10-16T02:44:54;19.90;92.60
38788;DHT22;24536;45.488;12.238;2022-10-16T02:47:20;19.80;92.70
38788;DHT22;24536;45.488;12.238;2022-10-16T02:49:45;19.80;92.70
38788;DHT22;24536;45.488;12.238;2022-10-16T02:52:11;19.80;92.90
38788;DHT22;24536;45.488;12.238;2022-10-16T02:54:36;19.80;92.90
38788;DHT22;24536;45.488;12.238;2022-10-16T02:57:02;19.80;93.00
38788;DHT22;24536;45.488;12.238;2022-10-16T02:59:28;19.80;92.90
38788;DHT22;24536;45.488;12.238;2022-10-16T03:01:53;19.80;93.00
38788;DHT22;24536;45.488;12.238;2022-10-16T03:04:19;19.90;93.10
38788;DHT22;24536;45.488;12.238;2022-10-16T03:06:45;19.90;93.00
38788;DHT22;24536;45.488;12.238;2022-10-16T03:09:10;19.90;93.10
38788;DHT22;24536;45.488;12.238;2022-10-16T03:11:36;19.90;93.00
38788;DHT22;24536;45.488;12.238;2022-10-16T03:14:02;19.90;92.90
38788;DHT22;24536;45.488;12.238;2022-10-16T03:16:27;19.90;92.90
38788;DHT22;24536;45.488;12.238;2022-10-16T03:18:53;19.90;92.90
38788;DHT22;24536;45.488;12.238;2022-10-16T03:21:19;19.90;92.80
38788;DHT22;24536;45.488;12.238;2022-10-16T03:23:44;19.90;92.90
38788;DHT22;24536;45.488;12.238;2022-10-16T03:26:10;19.90;92.80
38788;DHT22;24536;45.488;12.238;2022-10-16T03:28:36;19.90;93.10
38788;DHT22;24536;45.488;12.238;2022-10-16T03:31:01;19.90;92.90
38788;DHT22;24536;45.488;12.238;2022-10-16T03:33:27;19.90;92.50
38788;DHT22;24536;45.488;12.238;2022-10-16T03:35:53;19.90;92.40
38788;DHT22;24536;45.488;12.238;2022-10-16T03:38:21;19.90;92.30
38788;DHT22;24536;45.488;12.238;2022-10-16T03:40:47;19.90;92.50
38788;DHT22;24536;45.488;12.238;2022-10-16T03:43:12;19.90;92.40
38788;DHT22;24536;45.488;12.238;2022-10-16T03:45:38;19.90;92.60
38788;DHT22;24536;45.488;12.238;2022-10-16T03:48:04;19.80;92.60
38788;DHT22;24536;45.488;12.238;2022-10-16T03:50:29;19.80;92.70
38788;DHT22;24536;45.488;12.238;2022-10-16T03:52:55;19.80;92.60
38788;DHT22;24536;45.488;12.238;2022-10-16T03:55:21;19.80;92.50
38788;DHT22;24536;45.488;12.238;2022-10-16T03:57:46;19.80;92.40
38788;DHT22;24536;45.488;12.238;2022-10-16T04:00:13;19.80;92.30
38788;DHT22;24536;45.488;12.238;2022-10-16T04:02:39;19.70;92.40
38788;DHT22;24536;45.488;12.238;2022-10-16T04:05:05;19.70;92.20
38788;DHT22;24536;45.488;12.238;2022-10-16T04:07:31;19.70;92.30
38788;DHT22;24536;45.488;12.238;2022-10-16T04:09:57;19.60;92.20
38788;DHT22;24536;45.488;12.238;2022-10-16T04:12:25;19.60;92.20
38788;DHT22;24536;45.488;12.238;2022-10-16T04:14:50;19.60;92.20
38788;DHT22;24536;45.488;12.238;2022-10-16T04:17:16;19.60;92.20
38788;DHT22;24536;45.488;12.238;2022-10-16T04:19:42;19.60;92.30
38788;DHT22;24536;45.488;12.238;2022-10-16T04:22:07;19.50;92.10
38788;DHT22;24536;45.488;12.238;2022-10-16T04:24:33;19.50;92.30
38788;DHT22;24536;45.488;12.238;2022-10-16T04:26:59;19.40;92.40
38788;DHT22;24536;45.488;12.238;2022-10-16T04:29:25;19.40;92.40
38788;DHT22;24536;45.488;12.238;2022-10-16T04:31:50;19.40;92.60
38788;DHT22;24536;45.488;12.238;2022-10-16T04:34:16;19.40;92.30
38788;DHT22;24536;45.488;12.238;2022-10-16T04:36:42;19.40;92.40
38788;DHT22;24536;45.488;12.238;2022-10-16T04:39:07;19.40;92.40
38788;DHT22;24536;45.488;12.238;2022-10-16T04:41:33;19.30;92.40
38788;DHT22;24536;45.488;12.238;2022-10-16T04:43:59;19.30;92.60
38788;DHT22;24536;45.488;12.238;2022-10-16T04:46:25;19.30;92.70
38788;DHT22;24536;45.488;12.238;2022-10-16T04:48:50;19.30;92.60
38788;DHT22;24536;45.488;12.238;2022-10-16T04:51:16;19.30;92.50
38788;DHT22;24536;45.488;12.238;2022-10-16T04:53:42;19.20;92.60
38788;DHT22;24536;45.488;12.238;2022-10-16T04:56:07;19.20;92.70
38788;DHT22;24536;45.488;12.238;2022-10-16T04:58:33;19.00;93.00
38788;DHT22;24536;45.488;12.238;2022-10-16T05:00:59;18.90;93.20
38788;DHT22;24536;45.488;12.238;2022-10-16T05:03:24;18.80;93.50
38788;DHT22;24536;45.488;12.238;2022-10-16T05:05:50;18.70;93.70
38788;DHT22;24536;45.488;12.238;2022-10-16T05:08:16;18.60;93.80
38788;DHT22;24536;45.488;12.238;2022-10-16T05:10:43;18.60;93.60
38788;DHT22;24536;45.488;12.238;2022-10-16T05:13:09;18.60;93.70
38788;DHT22;24536;45.488;12.238;2022-10-16T05:15:36;18.60;93.80
38788;DHT22;24536;45.488;12.238;2022-10-16T05:18:01;18.60;93.60
38788;DHT22;24536;45.488;12.238;2022-10-16T05:20:27;18.60;93.50
38788;DHT22;24536;45.488;12.238;2022-10-16T05:22:53;18.60;93.60
38788;DHT22;24536;45.488;12.238;2022-10-16T05:25:19;18.60;93.50
38788;DHT22;24536;45.488;12.238;2022-10-16T05:27:48;18.60;93.40
38788;DHT22;24536;45.488;12.238;2022-10-16T05:30:14;18.60;93.20
38788;DHT22;24536;45.488;12.238;2022-10-16T05:32:40;18.50;93.20
38788;DHT22;24536;45.488;12.238;2022-10-16T05:35:06;18.40;93.40
38788;DHT22;24536;45.488;12.238;2022-10-16T05:37:31;18.40;93.50
38788;DHT22;24536;45.488;12.238;2022-10-16T05:39:57;18.50;93.60
38788;DHT22;24536;45.488;12.238;2022-10-16T05:42:23;18.40;93.30
38788;DHT22;24536;45.488;12.238;2022-10-16T05:44:49;18.40;93.60
38788;DHT22;24536;45.488;12.238;2022-10-16T05:47:15;18.40;93.50
38788;DHT22;24536;45.488;12.238;2022-10-16T05:49:40;18.50;93.50
38788;DHT22;24536;45.488;12.238;2022-10-16T05:52:06;18.50;93.00
38788;DHT22;24536;45.488;12.238;2022-10-16T05:54:32;18.50;92.80
38788;DHT22;24536;45.488;12.238;2022-10-16T05:56:57;18.40;92.90
38788;DHT22;24536;45.488;12.238;2022-10-16T05:59:23;18.40;92.90
38788;DHT22;24536;45.488;12.238;2022-10-16T06:01:49;18.30;92.90
38788;DHT22;24536;45.488;12.238;2022-10-16T06:04:14;18.30;92.90
38788;DHT22;24536;45.488;12.238;2022-10-16T06:06:40;18.20;93.00
38788;DHT22;24536;45.488;12.238;2022-10-16T06:09:06;18.20;92.80
38788;DHT22;24536;45.488;12.238;2022-10-16T06:11:33;18.20;92.90
38788;DHT22;24536;45.488;12.238;2022-10-16T06:14:00;18.20;92.80
38788;DHT22;24536;45.488;12.238;2022-10-16T06:16:28;18.30;92.80
38788;DHT22;24536;45.488;12.238;2022-10-16T06:18:55;18.30;92.70
38788;DHT22;24536;45.488;12.238;2022-10-16T06:21:23;18.40;92.70
38788;DHT22;24536;45.488;12.238;2022-10-16T06:23:54;18.40;92.40
38788;DHT22;24536;45.488;12.238;2022-10-16T06:26:23;18.30;92.40
38788;DHT22;24536;45.488;12.238;2022-10-16T06:28:49;18.40;92.50
38788;DHT22;24536;45.488;12.238;2022-10-16T06:31:16;18.50;92.40
38788;DHT22;24536;45.488;12.238;2022-10-16T06:33:43;18.50;92.50
38788;DHT22;24536;45.488;12.238;2022-10-16T06:36:14;18.50;92.00
38788;DHT22;24536;45.488;12.238;2022-10-16T06:38:40;18.50;91.90
38788;DHT22;24536;45.488;12.238;2022-10-16T06:41:08;18.30;92.00
38788;DHT22;24536;45.488;12.238;2022-10-16T06:43:35;18.30;92.20
38788;DHT22;24536;45.488;12.238;2022-10-16T06:46:02;18.40;92.10
38788;DHT22;24536;45.488;12.238;2022-10-16T06:48:29;18.40;92.40
38788;DHT22;24536;45.488;12.238;2022-10-16T06:51:02;18.40;91.90
38788;DHT22;24536;45.488;12.238;2022-10-16T06:53:32;18.40;92.10
38788;DHT22;24536;45.488;12.238;2022-10-16T06:55:58;18.40;92.00
38788;DHT22;24536;45.488;12.238;2022-10-16T06:58:23;18.40;92.00
38788;DHT22;24536;45.488;12.238;2022-10-16T07:00:55;18.50;92.10
38788;DHT22;24536;45.488;12.238;2022-10-16T07:03:22;18.50;91.90
38788;DHT22;24536;45.488;12.238;2022-10-16T07:05:47;18.50;91.90
38788;DHT22;24536;45.488;12.238;2022-10-16T07:08:13;18.60;91.90
38788;DHT22;24536;45.488;12.238;2022-10-16T07:10:39;18.60;91.70
38788;DHT22;24536;45.488;12.238;2022-10-16T07:13:05;18.60;91.70
38788;DHT22;24536;45.488;12.238;2022-10-16T07:15:33;18.60;91.60
38788;DHT22;24536;45.488;12.238;2022-10-16T07:17:59;18.70;91.60
38788;DHT22;24536;45.488;12.238;2022-10-16T07:20:25;18.60;91.50
38788;DHT22;24536;45.488;12.238;2022-10-16T07:22:51;18.70;91.60
38788;DHT22;24536;45.488;12.238;2022-10-16T07:25:18;18.80;91.60
38788;DHT22;24536;45.488;12.238;2022-10-16T07:27:43;18.80;91.40
38788;DHT22;24536;45.488;12.238;2022-10-16T07:30:09;18.90;91.50
38788;DHT22;24536;45.488;12.238;2022-10-16T07:32:35;19.00;91.50
38788;DHT22;24536;45.488;12.238;2022-10-16T07:35:01;19.10;91.40
38788;DHT22;24536;45.488;12.238;2022-10-16T07:37:27;19.20;91.10
38788;DHT22;24536;45.488;12.238;2022-10-16T07:39:52;19.10;91.10
38788;DHT22;24536;45.488;12.238;2022-10-16T07:42:18;19.20;91.20
38788;DHT22;24536;45.488;12.238;2022-10-16T07:44:45;19.30;91.20
38788;DHT22;24536;45.488;12.238;2022-10-16T07:47:11;19.40;91.10
38788;DHT22;24536;45.488;12.238;2022-10-16T07:49:36;19.40;90.90
38788;DHT22;24536;45.488;12.238;2022-10-16T07:52:02;19.50;90.90
38788;DHT22;24536;45.488;12.238;2022-10-16T07:54:28;19.60;90.80
38788;DHT22;24536;45.488;12.238;2022-10-16T07:56:54;19.70;90.70
38788;DHT22;24536;45.488;12.238;2022-10-16T07:59:20;19.70;90.70
38788;DHT22;24536;45.488;12.238;2022-10-16T08:01:46;19.80;90.60
38788;DHT22;24536;45.488;12.238;2022-10-16T08:04:11;19.90;90.60
38788;DHT22;24536;45.488;12.238;2022-10-16T08:06:39;20.00;90.30
38788;DHT22;24536;45.488;12.238;2022-10-16T08:09:05;20.10;90.40
38788;DHT22;24536;45.488;12.238;2022-10-16T08:11:32;20.10;90.00
38788;DHT22;24536;45.488;12.238;2022-10-16T08:13:57;20.10;89.50
38788;DHT22;24536;45.488;12.238;2022-10-16T08:16:23;20.00;89.90
38788;DHT22;24536;45.488;12.238;2022-10-16T08:18:49;20.00;90.20
38788;DHT22;24536;45.488;12.238;2022-10-16T08:21:21;20.00;90.40
38788;DHT22;24536;45.488;12.238;2022-10-16T08:23:49;20.10;90.30
38788;DHT22;24536;45.488;12.238;2022-10-16T08:26:15;20.30;90.40
38788;DHT22;24536;45.488;12.238;2022-10-16T08:28:41;20.40;90.20
38788;DHT22;24536;45.488;12.238;2022-10-16T08:31:10;20.60;90.20
38788;DHT22;24536;45.488;12.238;2022-10-16T08:33:37;20.80;90.10
38788;DHT22;24536;45.488;12.238;2022-10-16T08:36:05;20.90;89.30
38788;DHT22;24536;45.488;12.238;2022-10-16T08:38:31;21.00;88.90
38788;DHT22;24536;45.488;12.238;2022-10-16T08:44:09;21.10;87.80
38788;DHT22;24536;45.488;12.238;2022-10-16T08:46:43;21.20;87.90
38788;DHT22;24536;45.488;12.238;2022-10-16T08:49:12;21.20;88.20
38788;DHT22;24536;45.488;12.238;2022-10-16T08:51:41;21.40;87.90
38788;DHT22;24536;45.488;12.238;2022-10-16T08:54:41;21.50;87.40
38788;DHT22;24536;45.488;12.238;2022-10-16T08:57:17;21.60;85.90
38788;DHT22;24536;45.488;12.238;2022-10-16T08:59:44;21.70;86.20
38788;DHT22;24536;45.488;12.238;2022-10-16T09:02:35;21.90;86.40
38788;DHT22;24536;45.488;12.238;2022-10-16T09:08:14;22.10;85.50
38788;DHT22;24536;45.488;12.238;2022-10-16T09:10:41;22.20;84.60
38788;DHT22;24536;45.488;12.238;2022-10-16T09:13:28;22.40;84.50
38788;DHT22;24536;45.488;12.238;2022-10-16T09:21:37;22.60;83.40
38788;DHT22;24536;45.488;12.238;2022-10-16T09:24:15;22.60;83.80
38788;DHT22;24536;45.488;12.238;2022-10-16T09:26:42;22.50;83.30
38788;DHT22;24536;45.488;12.238;2022-10-16T09:29:12;22.50;83.30
38788;DHT22;24536;45.488;12.238;2022-10-16T09:31:38;22.50;83.50
38788;DHT22;24536;45.488;12.238;2022-10-16T09:34:06;22.60;84.00
38788;DHT22;24536;45.488;12.238;2022-10-16T09:36:42;22.70;83.80
38788;DHT22;24536;45.488;12.238;2022-10-16T09:39:10;22.90;82.80
38788;DHT22;24536;45.488;12.238;2022-10-16T09:41:42;23.00;83.10
38788;DHT22;24536;45.488;12.238;2022-10-16T09:44:28;23.20;83.40
38788;DHT22;24536;45.488;12.238;2022-10-16T09:47:02;23.30;83.00
38788;DHT22;24536;45.488;12.238;2022-10-16T09:49:28;23.40;82.50
38788;DHT22;24536;45.488;12.238;2022-10-16T09:52:12;23.50;82.60
38788;DHT22;24536;45.488;12.238;2022-10-16T09:54:52;23.60;82.30
38788;DHT22;24536;45.488;12.238;2022-10-16T09:57:18;23.60;81.30
38788;DHT22;24536;45.488;12.238;2022-10-16T09:59:48;23.70;81.50
38788;DHT22;24536;45.488;12.238;2022-10-16T10:02:15;23.80;81.90
38788;DHT22;24536;45.488;12.238;2022-10-16T10:04:52;23.80;81.10
38788;DHT22;24536;45.488;12.238;2022-10-16T10:07:27;24.00;81.30
38788;DHT22;24536;45.488;12.238;2022-10-16T10:09:55;24.00;80.80
38788;DHT22;24536;45.488;12.238;2022-10-16T10:12:29;23.80;80.10
38788;DHT22;24536;45.488;12.238;2022-10-16T10:15:03;23.80;80.90
38788;DHT22;24536;45.488;12.238;2022-10-16T10:17:30;23.80;82.00
38788;DHT22;24536;45.488;12.238;2022-10-16T10:20:00;24.00;82.50
38788;DHT22;24536;45.488;12.238;2022-10-16T10:36:14;24.10;81.80
38788;DHT22;24536;45.488;12.238;2022-10-16T10:38:52;24.10;80.90
38788;DHT22;24536;45.488;12.238;2022-10-16T11:08:53;26.10;77.00
38788;DHT22;24536;45.488;12.238;2022-10-16T11:11:36;26.20;76.10
38788;DHT22;24536;45.488;12.238;2022-10-16T11:19:45;26.60;74.50
38788;DHT22;24536;45.488;12.238;2022-10-16T11:27:36;27.10;72.60
38788;DHT22;24536;45.488;12.238;2022-10-16T11:30:24;27.40;71.90
38788;DHT22;24536;45.488;12.238;2022-10-16T11:33:04;27.60;70.20
38788;DHT22;24536;45.488;12.238;2022-10-16T11:35:42;27.90;70.20
38788;DHT22;24536;45.488;12.238;2022-10-16T11:38:26;28.20;69.80
38788;DHT22;24536;45.488;12.238;2022-10-16T11:40:57;28.30;68.40
38788;DHT22;24536;45.488;12.238;2022-10-16T11:43:38;28.40;68.10
38788;DHT22;24536;45.488;12.238;2022-10-16T11:46:18;28.40;69.00
38788;DHT22;24536;45.488;12.238;2022-10-16T11:51:38;28.50;67.40
38788;DHT22;24536;45.488;12.238;2022-10-16T11:54:41;28.80;67.10
38788;DHT22;24536;45.488;12.238;2022-10-16T11:57:16;29.00;66.60
38788;DHT22;24536;45.488;12.238;2022-10-16T12:00:09;29.30;65.30
38788;DHT22;24536;45.488;12.238;2022-10-16T12:08:20;29.40;65.00
38788;DHT22;24536;45.488;12.238;2022-10-16T12:10:48;29.40;65.00
38788;DHT22;24536;45.488;12.238;2022-10-16T12:13:43;29.60;65.90
38788;DHT22;24536;45.488;12.238;2022-10-16T12:18:43;29.60;65.40
38788;DHT22;24536;45.488;12.238;2022-10-16T12:21:11;29.50;65.20
38788;DHT22;24536;45.488;12.238;2022-10-16T12:23:50;29.10;66.50
38788;DHT22;24536;45.488;12.238;2022-10-16T12:26:31;28.60;68.10
38788;DHT22;24536;45.488;12.238;2022-10-16T12:29:15;28.30;68.20
38788;DHT22;24536;45.488;12.238;2022-10-16T12:31:50;28.20;68.50
38788;DHT22;24536;45.488;12.238;2022-10-16T12:34:51;28.20;67.80
38788;DHT22;24536;45.488;12.238;2022-10-16T12:37:28;27.80;68.40
38788;DHT22;24536;45.488;12.238;2022-10-16T12:39:55;27.50;69.70
38788;DHT22;24536;45.488;12.238;2022-10-16T12:44:55;26.80;72.00
38788;DHT22;24536;45.488;12.238;2022-10-16T12:49:57;26.60;72.40
38788;DHT22;24536;45.488;12.238;2022-10-16T12:52:45;26.60;72.20
38788;DHT22;24536;45.488;12.238;2022-10-16T12:55:19;26.40;72.00
38788;DHT22;24536;45.488;12.238;2022-10-16T13:00:45;26.20;72.30
38788;DHT22;24536;45.488;12.238;2022-10-16T13:06:08;25.90;73.20
38788;DHT22;24536;45.488;12.238;2022-10-16T13:22:19;25.40;74.80
38788;DHT22;24536;45.488;12.238;2022-10-16T13:28:02;25.30;74.70
38788;DHT22;24536;45.488;12.238;2022-10-16T13:30:30;25.30;75.70
38788;DHT22;24536;45.488;12.238;2022-10-16T13:33:02;25.20;75.70
38788;DHT22;24536;45.488;12.238;2022-10-16T13:35:32;25.20;74.80
38788;DHT22;24536;45.488;12.238;2022-10-16T13:41:38;25.00;74.20
38788;DHT22;24536;45.488;12.238;2022-10-16T13:44:04;24.90;74.30
38788;DHT22;24536;45.488;12.238;2022-10-16T13:46:30;24.80;75.10
38788;DHT22;24536;45.488;12.238;2022-10-16T13:49:19;24.80;75.50
38788;DHT22;24536;45.488;12.238;2022-10-16T13:51:58;24.70;75.70
38788;DHT22;24536;45.488;12.238;2022-10-16T13:54:26;24.70;76.00
38788;DHT22;24536;45.488;12.238;2022-10-16T13:56:54;24.60;75.30
38788;DHT22;24536;45.488;12.238;2022-10-16T13:59:32;24.50;75.30
38788;DHT22;24536;45.488;12.238;2022-10-16T14:01:58;24.50;75.80
38788;DHT22;24536;45.488;12.238;2022-10-16T14:04:29;24.40;77.30
38788;DHT22;24536;45.488;12.238;2022-10-16T14:06:57;24.40;78.80
38788;DHT22;24536;45.488;12.238;2022-10-16T14:09:23;24.20;79.20
38788;DHT22;24536;45.488;12.238;2022-10-16T14:11:59;24.20;79.60
38788;DHT22;24536;45.488;12.238;2022-10-16T14:14:27;24.20;79.70
38788;DHT22;24536;45.488;12.238;2022-10-16T14:16:57;24.20;79.80
38788;DHT22;24536;45.488;12.238;2022-10-16T14:19:28;24.20;80.30
38788;DHT22;24536;45.488;12.238;2022-10-16T14:21:54;24.20;79.60
38788;DHT22;24536;45.488;12.238;2022-10-16T14:24:31;24.10;80.20
38788;DHT22;24536;45.488;12.238;2022-10-16T14:26:58;24.10;80.40
38788;DHT22;24536;45.488;12.238;2022-10-16T14:29:26;24.10;79.20
38788;DHT22;24536;45.488;12.238;2022-10-16T14:32:00;24.10;79.60
38788;DHT22;24536;45.488;12.238;2022-10-16T14:34:29;24.10;80.10
38788;DHT22;24536;45.488;12.238;2022-10-16T14:36:56;24.10;79.80
38788;DHT22;24536;45.488;12.238;2022-10-16T14:39:23;24.00;80.70
38788;DHT22;24536;45.488;12.238;2022-10-16T14:41:56;24.10;81.00
38788;DHT22;24536;45.488;12.238;2022-10-16T14:44:28;24.10;80.70
38788;DHT22;24536;45.488;12.238;2022-10-16T14:46:55;24.10;80.40
38788;DHT22;24536;45.488;12.238;2022-10-16T14:49:22;24.00;80.10
38788;DHT22;24536;45.488;12.238;2022-10-16T14:51:48;24.00;80.20
38788;DHT22;24536;45.488;12.238;2022-10-16T14:54:17;24.00;81.00
38788;DHT22;24536;45.488;12.238;2022-10-16T14:56:48;24.00;81.70
38788;DHT22;24536;45.488;12.238;2022-10-16T14:59:19;24.00;81.50
38788;DHT22;24536;45.488;12.238;2022-10-16T15:01:45;23.90;81.40
38788;DHT22;24536;45.488;12.238;2022-10-16T15:04:12;23.90;81.60
38788;DHT22;24536;45.488;12.238;2022-10-16T15:06:38;23.90;81.60
38788;DHT22;24536;45.488;12.238;2022-10-16T15:09:04;23.80;81.70
38788;DHT22;24536;45.488;12.238;2022-10-16T15:11:31;23.80;81.80
38788;DHT22;24536;45.488;12.238;2022-10-16T15:13:58;23.80;81.60
38788;DHT22;24536;45.488;12.238;2022-10-16T15:16:24;23.70;81.90
38788;DHT22;24536;45.488;12.238;2022-10-16T15:18:50;23.60;82.60
38788;DHT22;24536;45.488;12.238;2022-10-16T15:21:32;23.60;83.30
38788;DHT22;24536;45.488;12.238;2022-10-16T15:23:58;23.60;83.90
38788;DHT22;24536;45.488;12.238;2022-10-16T15:26:25;23.50;84.30
38788;DHT22;24536;45.488;12.238;2022-10-16T15:28:51;23.40;85.00
38788;DHT22;24536;45.488;12.238;2022-10-16T15:31:17;23.40;85.00
38788;DHT22;24536;45.488;12.238;2022-10-16T15:33:43;23.30;85.10
38788;DHT22;24536;45.488;12.238;2022-10-16T15:36:09;23.40;85.50
38788;DHT22;24536;45.488;12.238;2022-10-16T15:38:35;23.30;86.00
38788;DHT22;24536;45.488;12.238;2022-10-16T15:41:00;23.20;86.00
38788;DHT22;24536;45.488;12.238;2022-10-16T15:43:26;23.20;86.00
38788;DHT22;24536;45.488;12.238;2022-10-16T15:46:03;23.20;86.70
38788;DHT22;24536;45.488;12.238;2022-10-16T15:48:31;23.20;86.70
38788;DHT22;24536;45.488;12.238;2022-10-16T15:50:58;23.20;86.80
38788;DHT22;24536;45.488;12.238;2022-10-16T15:53:23;23.10;86.70
38788;DHT22;24536;45.488;12.238;2022-10-16T15:55:49;23.10;86.80
38788;DHT22;24536;45.488;12.238;2022-10-16T15:58:15;23.10;86.90
38788;DHT22;24536;45.488;12.238;2022-10-16T16:00:40;23.10;87.40
38788;DHT22;24536;45.488;12.238;2022-10-16T16:03:06;23.00;87.60
38788;DHT22;24536;45.488;12.238;2022-10-16T16:05:32;23.00;87.60
38788;DHT22;24536;45.488;12.238;2022-10-16T16:07:58;22.90;88.00
38788;DHT22;24536;45.488;12.238;2022-10-16T16:10:24;22.90;88.40
38788;DHT22;24536;45.488;12.238;2022-10-16T16:12:50;22.90;88.60
38788;DHT22;24536;45.488;12.238;2022-10-16T16:15:20;22.90;89.00
38788;DHT22;24536;45.488;12.238;2022-10-16T16:17:45;22.80;89.00
38788;DHT22;24536;45.488;12.238;2022-10-16T16:20:11;22.80;89.30
38788;DHT22;24536;45.488;12.238;2022-10-16T16:22:37;22.70;89.40
38788;DHT22;24536;45.488;12.238;2022-10-16T16:25:03;22.70;89.70
38788;DHT22;24536;45.488;12.238;2022-10-16T16:27:29;22.60;90.00
38788;DHT22;24536;45.488;12.238;2022-10-16T16:29:59;22.60;90.10
38788;DHT22;24536;45.488;12.238;2022-10-16T16:32:24;22.60;90.20
38788;DHT22;24536;45.488;12.238;2022-10-16T16:34:50;22.60;90.30
38788;DHT22;24536;45.488;12.238;2022-10-16T16:37:16;22.60;90.30
38788;DHT22;24536;45.488;12.238;2022-10-16T16:39:41;22.50;90.30
38788;DHT22;24536;45.488;12.238;2022-10-16T16:42:07;22.50;90.40
38788;DHT22;24536;45.488;12.238;2022-10-16T16:44:33;22.50;90.50
38788;DHT22;24536;45.488;12.238;2022-10-16T16:47:02;22.40;90.40
38788;DHT22;24536;45.488;12.238;2022-10-16T16:49:28;22.40;90.50
38788;DHT22;24536;45.488;12.238;2022-10-16T16:51:56;22.40;90.60
38788;DHT22;24536;45.488;12.238;2022-10-16T16:54:22;22.40;90.70
38788;DHT22;24536;45.488;12.238;2022-10-16T16:56:48;22.30;90.80
38788;DHT22;24536;45.488;12.238;2022-10-16T16:59:17;22.30;90.80
38788;DHT22;24536;45.488;12.238;2022-10-16T17:01:43;22.20;90.90
38788;DHT22;24536;45.488;12.238;2022-10-16T17:04:10;22.20;90.90
38788;DHT22;24536;45.488;12.238;2022-10-16T17:06:36;22.20;91.00
38788;DHT22;24536;45.488;12.238;2022-10-16T17:09:04;22.20;91.00
38788;DHT22;24536;45.488;12.238;2022-10-16T17:11:31;22.10;91.10
38788;DHT22;24536;45.488;12.238;2022-10-16T17:13:58;22.10;91.20
38788;DHT22;24536;45.488;12.238;2022-10-16T17:16:33;22.10;91.20
38788;DHT22;24536;45.488;12.238;2022-10-16T17:19:01;22.10;91.20
38788;DHT22;24536;45.488;12.238;2022-10-16T17:21:27;22.10;91.30
38788;DHT22;24536;45.488;12.238;2022-10-16T17:23:55;22.00;91.30
38788;DHT22;24536;45.488;12.238;2022-10-16T17:26:21;22.00;91.40
38788;DHT22;24536;45.488;12.238;2022-10-16T17:28:51;21.90;91.50
38788;DHT22;24536;45.488;12.238;2022-10-16T17:31:23;21.90;91.60
38788;DHT22;24536;45.488;12.238;2022-10-16T17:33:49;21.80;91.70